sensor_id;sensor_type;location;lat;lon;timestamp;noise_LAeq;noise_LA_min;noise_LA_max;noise_LA01;noise_LA95
74504;Laerm;62988;55.776;37.544;2022-10-16T00:01:25;50.57;45.74;56.55;;
74504;Laerm;62988;55.776;37.544;2022-10-16T00:03:51;50.19;45.78;55.72;;
74504;Laerm;62988;55.776;37.544;2022-10-16T00:06:19;51.31;45.89;59.03;;
74504;Laerm;62988;55.776;37.544;2022-10-16T00:08:45;51.42;46.59;55.80;;
74504;Laerm;62988;55.776;37.544;2022-10-16T00:11:14;51.31;45.70;56.23;;
74504;Laerm;62988;55.776;37.544;2022-10-16T00:13:41;51.14;46.48;56.00;;
74504;Laerm;62988;55.776;37.544;2022-10-16T00:16:09;51.40;46.44;59.52;;
74504;Laerm;62988;55.776;37.544;2022-10-16T00:18:35;50.95;45.11;56.34;;
74504;Laerm;62988;55.776;37.544;2022-10-16T00:21:12;50.87;46.31;56.90;;
74504;Laerm;62988;55.776;37.544;2022-10-16T00:23:38;51.52;45.63;57.92;;
74504;Laerm;62988;55.776;37.544;2022-10-16T00:26:10;51.17;46.59;59.46;;
74504;Laerm;62988;55.776;37.544;2022-10-16T00:28:36;50.84;46.01;57.15;;
74504;Laerm;62988;55.776;37.544;2022-10-16T00:31:07;51.85;47.14;60.03;;
74504;Laerm;62988;55.776;37.544;2022-10-16T00:33:33;52.21;45.71;71.35;;
74504;Laerm;62988;55.776;37.544;2022-10-16T00:36:00;52.29;45.71;65.34;;
74504;Laerm;62988;55.776;37.544;2022-10-16T00:38:26;51.27;46.16;63.20;;
74504;Laerm;62988;55.776;37.544;2022-10-16T00:40:51;50.49;45.23;57.58;;
74504;Laerm;62988;55.776;37.544;2022-10-16T00:43:43;50.79;45.60;56.95;;
74504;Laerm;62988;55.776;37.544;2022-10-16T00:46:19;50.49;44.39;58.32;;
74504;Laerm;62988;55.776;37.544;2022-10-16T00:49:04;49.61;44.96;55.16;;
74504;Laerm;62988;55.776;37.544;2022-10-16T00:51:54;50.94;45.65;57.55;;
74504;Laerm;62988;55.776;37.544;2022-10-16T00:54:23;50.66;43.96;56.10;;
74504;Laerm;62988;55.776;37.544;2022-10-16T00:56:50;50.18;45.60;55.28;;
74504;Laerm;62988;55.776;37.544;2022-10-16T00:59:24;49.67;45.26;54.20;;
74504;Laerm;62988;55.776;37.544;2022-10-16T01:01:51;49.64;44.50;55.02;;
74504;Laerm;62988;55.776;37.544;2022-10-16T01:04:17;50.77;43.96;59.76;;
74504;Laerm;62988;55.776;37.544;2022-10-16T01:06:51;51.10;46.31;58.51;;
74504;Laerm;62988;55.776;37.544;2022-10-16T01:09:29;51.73;45.18;61.64;;
74504;Laerm;62988;55.776;37.544;2022-10-16T01:12:06;49.78;44.77;55.68;;
74504;Laerm;62988;55.776;37.544;2022-10-16T01:17:13;49.90;44.81;56.11;;
74504;Laerm;62988;55.776;37.544;2022-10-16T01:22:54;51.09;45.61;58.64;;
74504;Laerm;62988;55.776;37.544;2022-10-16T01:25:37;49.50;44.69;65.27;;
74504;Laerm;62988;55.776;37.544;2022-10-16T01:28:05;50.82;46.89;58.90;;
74504;Laerm;62988;55.776;37.544;2022-10-16T01:30:33;51.11;45.93;60.35;;
74504;Laerm;62988;55.776;37.544;2022-10-16T01:33:17;49.78;44.93;54.46;;
74504;Laerm;62988;55.776;37.544;2022-10-16T01:35:58;51.71;44.95;57.96;;
74504;Laerm;62988;55.776;37.544;2022-10-16T01:38:36;51.08;45.12;59.26;;
74504;Laerm;62988;55.776;37.544;2022-10-16T01:41:24;50.09;44.69;56.81;;
74504;Laerm;62988;55.776;37.544;2022-10-16T01:43:57;50.41;43.57;55.83;;
74504;Laerm;62988;55.776;37.544;2022-10-16T01:46:26;51.54;47.13;56.97;;
74504;Laerm;62988;55.776;37.544;2022-10-16T01:48:52;51.73;46.83;59.04;;
74504;Laerm;62988;55.776;37.544;2022-10-16T01:51:19;50.63;44.50;58.66;;
74504;Laerm;62988;55.776;37.544;2022-10-16T01:53:48;51.03;45.56;57.92;;
74504;Laerm;62988;55.776;37.544;2022-10-16T01:56:17;51.68;45.54;57.50;;
74504;Laerm;62988;55.776;37.544;2022-10-16T01:58:50;51.10;46.27;56.06;;
74504;Laerm;62988;55.776;37.544;2022-10-16T02:01:18;50.12;45.48;55.55;;
74504;Laerm;62988;55.776;37.544;2022-10-16T02:03:46;52.35;45.83;60.11;;
74504;Laerm;62988;55.776;37.544;2022-10-16T02:06:15;51.03;45.74;56.34;;
74504;Laerm;62988;55.776;37.544;2022-10-16T02:08:40;51.18;45.22;58.24;;
74504;Laerm;62988;55.776;37.544;2022-10-16T02:11:10;50.59;45.31;55.32;;
74504;Laerm;62988;55.776;37.544;2022-10-16T02:13:40;50.27;45.16;56.36;;
74504;Laerm;62988;55.776;37.544;2022-10-16T02:16:09;50.84;45.45;55.96;;
74504;Laerm;62988;55.776;37.544;2022-10-16T02:18:35;49.89;45.70;54.82;;
74504;Laerm;62988;55.776;37.544;2022-10-16T02:26:13;50.85;46.00;57.51;;
74504;Laerm;62988;55.776;37.544;2022-10-16T02:28:54;50.61;44.84;58.79;;
74504;Laerm;62988;55.776;37.544;2022-10-16T02:31:27;49.60;44.07;56.62;;
74504;Laerm;62988;55.776;37.544;2022-10-16T02:33:56;50.91;44.23;59.05;;
74504;Laerm;62988;55.776;37.544;2022-10-16T02:36:25;49.83;44.29;54.64;;
74504;Laerm;62988;55.776;37.544;2022-10-16T02:38:51;50.15;45.33;57.47;;
74504;Laerm;62988;55.776;37.544;2022-10-16T02:41:18;50.24;44.46;58.09;;
74504;Laerm;62988;55.776;37.544;2022-10-16T02:43:44;50.78;45.90;57.58;;
74504;Laerm;62988;55.776;37.544;2022-10-16T02:46:09;50.26;44.19;55.14;;
74504;Laerm;62988;55.776;37.544;2022-10-16T02:48:35;51.48;45.78;57.41;;
74504;Laerm;62988;55.776;37.544;2022-10-16T02:51:01;51.20;45.40;60.80;;
74504;Laerm;62988;55.776;37.544;2022-10-16T02:53:26;52.05;46.01;57.24;;
74504;Laerm;62988;55.776;37.544;2022-10-16T02:55:52;51.26;44.39;56.75;;
74504;Laerm;62988;55.776;37.544;2022-10-16T02:58:17;51.65;45.62;57.08;;
74504;Laerm;62988;55.776;37.544;2022-10-16T03:00:43;51.86;46.27;56.44;;
74504;Laerm;62988;55.776;37.544;2022-10-16T03:03:08;51.40;45.96;55.95;;
74504;Laerm;62988;55.776;37.544;2022-10-16T03:05:34;51.37;46.55;56.59;;
74504;Laerm;62988;55.776;37.544;2022-10-16T03:07:59;52.24;47.30;58.79;;
74504;Laerm;62988;55.776;37.544;2022-10-16T03:10:26;51.31;47.39;55.95;;
74504;Laerm;62988;55.776;37.544;2022-10-16T03:12:52;51.73;45.93;56.62;;
74504;Laerm;62988;55.776;37.544;2022-10-16T03:15:18;51.88;46.62;56.28;;
74504;Laerm;62988;55.776;37.544;2022-10-16T03:17:43;51.62;47.70;55.32;;
74504;Laerm;62988;55.776;37.544;2022-10-16T03:20:09;52.28;46.58;58.88;;
74504;Laerm;62988;55.776;37.544;2022-10-16T03:22:35;51.55;46.53;57.33;;
74504;Laerm;62988;55.776;37.544;2022-10-16T03:25:00;52.98;48.02;56.95;;
74504;Laerm;62988;55.776;37.544;2022-10-16T03:27:26;51.28;46.82;55.34;;
74504;Laerm;62988;55.776;37.544;2022-10-16T03:29:52;52.39;47.08;62.44;;
74504;Laerm;62988;55.776;37.544;2022-10-16T03:32:17;52.27;47.78;56.93;;
74504;Laerm;62988;55.776;37.544;2022-10-16T03:34:43;52.80;47.35;57.47;;
74504;Laerm;62988;55.776;37.544;2022-10-16T03:37:09;52.65;46.68;59.21;;
74504;Laerm;62988;55.776;37.544;2022-10-16T03:39:35;52.59;47.65;60.17;;
74504;Laerm;62988;55.776;37.544;2022-10-16T03:42:00;54.83;47.10;63.69;;
74504;Laerm;62988;55.776;37.544;2022-10-16T03:44:26;57.66;48.06;75.08;;
74504;Laerm;62988;55.776;37.544;2022-10-16T03:46:51;55.98;48.69;67.65;;
74504;Laerm;62988;55.776;37.544;2022-10-16T03:49:17;53.95;49.58;62.84;;
74504;Laerm;62988;55.776;37.544;2022-10-16T03:51:42;52.74;48.41;57.69;;
74504;Laerm;62988;55.776;37.544;2022-10-16T03:54:09;53.39;49.41;58.65;;
74504;Laerm;62988;55.776;37.544;2022-10-16T03:56:35;53.16;49.52;61.42;;
74504;Laerm;62988;55.776;37.544;2022-10-16T03:59:01;54.04;49.54;58.35;;
74504;Laerm;62988;55.776;37.544;2022-10-16T04:01:26;53.92;48.77;59.97;;
74504;Laerm;62988;55.776;37.544;2022-10-16T04:03:52;53.94;49.06;59.07;;
74504;Laerm;62988;55.776;37.544;2022-10-16T04:06:17;53.95;48.63;61.30;;
74504;Laerm;62988;55.776;37.544;2022-10-16T04:08:43;53.79;48.32;65.01;;
74504;Laerm;62988;55.776;37.544;2022-10-16T04:11:09;55.08;49.92;59.99;;
74504;Laerm;62988;55.776;37.544;2022-10-16T04:13:34;54.50;50.11;67.87;;
74504;Laerm;62988;55.776;37.544;2022-10-16T04:16:00;58.81;51.46;81.01;;
74504;Laerm;62988;55.776;37.544;2022-10-16T04:18:25;53.68;48.62;59.79;;
74504;Laerm;62988;55.776;37.544;2022-10-16T04:20:53;54.26;50.39;58.88;;
74504;Laerm;62988;55.776;37.544;2022-10-16T04:23:18;53.82;49.67;57.68;;
74504;Laerm;62988;55.776;37.544;2022-10-16T04:25:44;53.48;48.71;57.93;;
74504;Laerm;62988;55.776;37.544;2022-10-16T04:28:09;54.56;50.07;59.46;;
74504;Laerm;62988;55.776;37.544;2022-10-16T04:30:38;53.95;50.02;59.64;;
74504;Laerm;62988;55.776;37.544;2022-10-16T04:33:03;55.08;49.54;62.39;;
74504;Laerm;62988;55.776;37.544;2022-10-16T04:35:29;54.99;50.43;58.92;;
74504;Laerm;62988;55.776;37.544;2022-10-16T04:37:57;55.58;49.66;70.18;;
74504;Laerm;62988;55.776;37.544;2022-10-16T04:40:23;54.67;51.33;58.23;;
74504;Laerm;62988;55.776;37.544;2022-10-16T04:42:48;54.98;50.10;61.79;;
74504;Laerm;62988;55.776;37.544;2022-10-16T04:45:14;54.49;50.02;59.21;;
74504;Laerm;62988;55.776;37.544;2022-10-16T04:47:39;54.68;48.26;62.78;;
74504;Laerm;62988;55.776;37.544;2022-10-16T04:50:05;54.50;50.19;57.90;;
74504;Laerm;62988;55.776;37.544;2022-10-16T04:52:31;54.28;50.00;60.21;;
74504;Laerm;62988;55.776;37.544;2022-10-16T04:54:57;53.85;48.93;57.74;;
74504;Laerm;62988;55.776;37.544;2022-10-16T04:57:26;55.70;49.87;70.67;;
74504;Laerm;62988;55.776;37.544;2022-10-16T04:59:52;53.68;49.46;60.12;;
74504;Laerm;62988;55.776;37.544;2022-10-16T05:02:17;54.09;49.58;60.03;;
74504;Laerm;62988;55.776;37.544;2022-10-16T05:04:43;54.40;49.28;60.92;;
74504;Laerm;62988;55.776;37.544;2022-10-16T05:07:08;54.22;48.85;61.48;;
74504;Laerm;62988;55.776;37.544;2022-10-16T05:09:34;54.49;49.01;60.52;;
74504;Laerm;62988;55.776;37.544;2022-10-16T05:12:00;53.90;48.94;59.71;;
74504;Laerm;62988;55.776;37.544;2022-10-16T05:14:25;54.00;50.19;61.56;;
74504;Laerm;62988;55.776;37.544;2022-10-16T05:16:50;53.96;49.63;58.48;;
74504;Laerm;62988;55.776;37.544;2022-10-16T05:19:17;54.40;50.22;60.27;;
74504;Laerm;62988;55.776;37.544;2022-10-16T05:21:42;55.21;49.88;61.51;;
74504;Laerm;62988;55.776;37.544;2022-10-16T05:24:08;56.54;52.00;61.04;;
74504;Laerm;62988;55.776;37.544;2022-10-16T05:26:34;55.37;51.22;59.50;;
74504;Laerm;62988;55.776;37.544;2022-10-16T05:29:00;55.41;52.22;58.86;;
74504;Laerm;62988;55.776;37.544;2022-10-16T05:31:26;56.01;52.12;65.63;;
74504;Laerm;62988;55.776;37.544;2022-10-16T05:33:51;56.12;51.11;59.78;;
74504;Laerm;62988;55.776;37.544;2022-10-16T05:36:17;55.50;51.62;60.46;;
74504;Laerm;62988;55.776;37.544;2022-10-16T05:38:43;55.14;51.17;59.88;;
74504;Laerm;62988;55.776;37.544;2022-10-16T05:41:09;55.56;50.98;60.41;;
74504;Laerm;62988;55.776;37.544;2022-10-16T05:43:35;55.00;50.88;62.40;;
74504;Laerm;62988;55.776;37.544;2022-10-16T05:46:05;55.29;51.61;60.63;;
74504;Laerm;62988;55.776;37.544;2022-10-16T05:48:31;56.19;51.54;60.95;;
74504;Laerm;62988;55.776;37.544;2022-10-16T05:51:05;54.82;51.13;60.57;;
74504;Laerm;62988;55.776;37.544;2022-10-16T05:53:36;54.70;50.28;59.42;;
74504;Laerm;62988;55.776;37.544;2022-10-16T05:56:02;55.28;50.93;62.45;;
74504;Laerm;62988;55.776;37.544;2022-10-16T05:58:30;54.97;50.92;63.97;;
74504;Laerm;62988;55.776;37.544;2022-10-16T06:00:57;54.69;50.81;59.80;;
74504;Laerm;62988;55.776;37.544;2022-10-16T06:03:23;54.94;50.85;61.22;;
74504;Laerm;62988;55.776;37.544;2022-10-16T06:05:50;55.01;50.41;62.69;;
74504;Laerm;62988;55.776;37.544;2022-10-16T06:08:16;55.11;50.89;60.12;;
74504;Laerm;62988;55.776;37.544;2022-10-16T06:10:42;54.28;50.50;62.75;;
74504;Laerm;62988;55.776;37.544;2022-10-16T06:13:09;54.88;51.25;59.26;;
74504;Laerm;62988;55.776;37.544;2022-10-16T06:15:34;54.73;50.40;60.40;;
74504;Laerm;62988;55.776;37.544;2022-10-16T06:18:00;55.13;51.14;59.53;;
74504;Laerm;62988;55.776;37.544;2022-10-16T06:20:26;54.66;50.83;63.48;;
74504;Laerm;62988;55.776;37.544;2022-10-16T06:22:51;54.80;51.22;71.01;;
74504;Laerm;62988;55.776;37.544;2022-10-16T06:25:17;54.53;49.60;64.12;;
74504;Laerm;62988;55.776;37.544;2022-10-16T06:27:42;55.91;50.57;70.49;;
74504;Laerm;62988;55.776;37.544;2022-10-16T06:30:08;55.31;51.75;63.71;;
74504;Laerm;62988;55.776;37.544;2022-10-16T06:32:34;55.67;51.83;64.46;;
74504;Laerm;62988;55.776;37.544;2022-10-16T06:34:59;55.70;52.14;60.29;;
74504;Laerm;62988;55.776;37.544;2022-10-16T06:37:26;55.74;51.58;62.52;;
74504;Laerm;62988;55.776;37.544;2022-10-16T06:39:52;56.59;52.88;64.67;;
74504;Laerm;62988;55.776;37.544;2022-10-16T06:42:18;55.55;52.38;60.89;;
74504;Laerm;62988;55.776;37.544;2022-10-16T06:44:44;55.64;51.57;61.35;;
74504;Laerm;62988;55.776;37.544;2022-10-16T06:47:10;54.84;51.58;60.27;;
74504;Laerm;62988;55.776;37.544;2022-10-16T06:49:36;54.77;50.76;60.32;;
74504;Laerm;62988;55.776;37.544;2022-10-16T06:52:02;55.18;51.91;60.51;;
74504;Laerm;62988;55.776;37.544;2022-10-16T06:54:27;55.23;51.09;62.24;;
74504;Laerm;62988;55.776;37.544;2022-10-16T06:56:53;54.97;50.99;62.20;;
74504;Laerm;62988;55.776;37.544;2022-10-16T06:59:22;54.85;51.46;69.98;;
74504;Laerm;62988;55.776;37.544;2022-10-16T07:01:48;55.08;50.73;65.72;;
74504;Laerm;62988;55.776;37.544;2022-10-16T07:04:14;54.98;50.94;64.76;;
74504;Laerm;62988;55.776;37.544;2022-10-16T07:06:39;55.05;51.66;63.51;;
74504;Laerm;62988;55.776;37.544;2022-10-16T07:09:08;55.70;52.25;61.33;;
74504;Laerm;62988;55.776;37.544;2022-10-16T07:11:34;55.88;52.26;63.33;;
74504;Laerm;62988;55.776;37.544;2022-10-16T07:14:00;55.95;51.07;73.82;;
74504;Laerm;62988;55.776;37.544;2022-10-16T07:16:28;55.33;49.83;72.69;;
74504;Laerm;62988;55.776;37.544;2022-10-16T07:18:55;56.58;52.12;72.97;;
74504;Laerm;62988;55.776;37.544;2022-10-16T07:21:24;55.34;50.49;63.78;;
74504;Laerm;62988;55.776;37.544;2022-10-16T07:23:51;54.93;51.01;60.43;;
74504;Laerm;62988;55.776;37.544;2022-10-16T07:26:18;55.05;50.03;62.32;;
74504;Laerm;62988;55.776;37.544;2022-10-16T07:28:43;55.96;52.23;68.52;;
74504;Laerm;62988;55.776;37.544;2022-10-16T07:31:11;55.60;51.44;60.65;;
74504;Laerm;62988;55.776;37.544;2022-10-16T07:33:39;56.91;50.72;78.14;;
74504;Laerm;62988;55.776;37.544;2022-10-16T07:36:05;59.03;50.79;83.81;;
74504;Laerm;62988;55.776;37.544;2022-10-16T07:38:30;55.04;50.90;66.01;;
74504;Laerm;62988;55.776;37.544;2022-10-16T07:41:02;55.61;51.63;69.16;;
74504;Laerm;62988;55.776;37.544;2022-10-16T07:43:28;56.89;50.57;72.88;;
74504;Laerm;62988;55.776;37.544;2022-10-16T07:45:53;55.59;51.03;69.36;;
74504;Laerm;62988;55.776;37.544;2022-10-16T07:48:21;55.98;52.00;62.82;;
74504;Laerm;62988;55.776;37.544;2022-10-16T07:50:47;56.24;50.72;72.35;;
74504;Laerm;62988;55.776;37.544;2022-10-16T07:53:13;66.09;49.83;92.97;;
74504;Laerm;62988;55.776;37.544;2022-10-16T07:55:39;55.53;51.42;70.44;;
74504;Laerm;62988;55.776;37.544;2022-10-16T07:58:04;55.74;50.60;68.58;;
74504;Laerm;62988;55.776;37.544;2022-10-16T08:00:31;55.17;51.41;60.41;;
74504;Laerm;62988;55.776;37.544;2022-10-16T08:03:00;54.77;50.61;68.65;;
74504;Laerm;62988;55.776;37.544;2022-10-16T08:05:27;55.15;50.07;65.22;;
74504;Laerm;62988;55.776;37.544;2022-10-16T08:07:53;56.15;49.63;74.18;;
74504;Laerm;62988;55.776;37.544;2022-10-16T08:10:20;56.00;50.03;72.90;;
74504;Laerm;62988;55.776;37.544;2022-10-16T08:12:45;53.85;50.03;60.80;;
74504;Laerm;62988;55.776;37.544;2022-10-16T08:15:11;54.45;50.96;62.21;;
74504;Laerm;62988;55.776;37.544;2022-10-16T08:17:37;54.32;50.17;65.87;;
74504;Laerm;62988;55.776;37.544;2022-10-16T08:20:03;55.44;50.20;71.27;;
74504;Laerm;62988;55.776;37.544;2022-10-16T08:22:29;54.11;50.74;63.49;;
74504;Laerm;62988;55.776;37.544;2022-10-16T08:24:54;57.08;52.15;77.10;;
74504;Laerm;62988;55.776;37.544;2022-10-16T08:27:20;56.78;50.69;73.72;;
74504;Laerm;62988;55.776;37.544;2022-10-16T08:29:45;54.51;50.03;60.83;;
74504;Laerm;62988;55.776;37.544;2022-10-16T08:32:11;55.79;51.52;71.80;;
74504;Laerm;62988;55.776;37.544;2022-10-16T08:34:37;55.15;51.06;64.23;;
74504;Laerm;62988;55.776;37.544;2022-10-16T08:37:02;54.55;49.74;64.28;;
74504;Laerm;62988;55.776;37.544;2022-10-16T08:39:28;54.69;49.64;62.26;;
74504;Laerm;62988;55.776;37.544;2022-10-16T08:42:36;55.33;51.38;62.97;;
74504;Laerm;62988;55.776;37.544;2022-10-16T08:47:45;55.02;51.24;61.50;;
74504;Laerm;62988;55.776;37.544;2022-10-16T08:50:20;57.32;50.16;78.64;;
74504;Laerm;62988;55.776;37.544;2022-10-16T08:52:47;53.86;48.81;73.81;;
74504;Laerm;62988;55.776;37.544;2022-10-16T08:55:30;53.58;48.35;59.30;;
74504;Laerm;62988;55.776;37.544;2022-10-16T08:57:55;51.87;45.97;63.06;;
74504;Laerm;62988;55.776;37.544;2022-10-16T09:00:21;53.20;48.76;63.64;;
74504;Laerm;62988;55.776;37.544;2022-10-16T09:03:03;53.11;46.90;67.14;;
74504;Laerm;62988;55.776;37.544;2022-10-16T09:11:14;52.45;47.39;64.27;;
74504;Laerm;62988;55.776;37.544;2022-10-16T09:13:51;51.42;46.89;57.21;;
74504;Laerm;62988;55.776;37.544;2022-10-16T09:16:44;51.55;46.74;68.12;;
74504;Laerm;62988;55.776;37.544;2022-10-16T09:19:20;51.57;46.83;58.00;;
74504;Laerm;62988;55.776;37.544;2022-10-16T09:21:48;53.06;48.69;65.94;;
74504;Laerm;62988;55.776;37.544;2022-10-16T09:24:19;53.76;49.72;61.70;;
74504;Laerm;62988;55.776;37.544;2022-10-16T09:26:46;53.43;48.86;66.25;;
74504;Laerm;62988;55.776;37.544;2022-10-16T09:29:14;54.45;49.95;67.28;;
74504;Laerm;62988;55.776;37.544;2022-10-16T09:31:41;52.96;48.73;63.83;;
74504;Laerm;62988;55.776;37.544;2022-10-16T09:34:17;53.41;48.74;60.35;;
74504;Laerm;62988;55.776;37.544;2022-10-16T09:36:46;52.79;49.04;57.76;;
74504;Laerm;62988;55.776;37.544;2022-10-16T09:39:12;52.72;47.95;59.67;;
74504;Laerm;62988;55.776;37.544;2022-10-16T09:41:40;54.19;49.83;68.64;;
74504;Laerm;62988;55.776;37.544;2022-10-16T09:44:29;53.96;50.12;71.39;;
74504;Laerm;62988;55.776;37.544;2022-10-16T09:47:22;54.58;48.83;71.57;;
74504;Laerm;62988;55.776;37.544;2022-10-16T09:49:57;52.45;48.40;59.43;;
74504;Laerm;62988;55.776;37.544;2022-10-16T09:52:25;53.03;49.30;60.91;;
74504;Laerm;62988;55.776;37.544;2022-10-16T09:54:59;55.79;51.02;61.98;;
74504;Laerm;62988;55.776;37.544;2022-10-16T09:57:26;56.75;48.12;72.35;;
74504;Laerm;62988;55.776;37.544;2022-10-16T09:59:53;56.28;50.72;64.13;;
74504;Laerm;62988;55.776;37.544;2022-10-16T10:02:30;57.93;52.12;68.31;;
74504;Laerm;62988;55.776;37.544;2022-10-16T10:04:56;56.83;49.46;70.81;;
74504;Laerm;62988;55.776;37.544;2022-10-16T10:07:33;54.35;49.72;58.09;;
74504;Laerm;62988;55.776;37.544;2022-10-16T10:10:04;55.55;50.73;62.01;;
74504;Laerm;62988;55.776;37.544;2022-10-16T10:12:31;55.49;51.36;59.77;;
74504;Laerm;62988;55.776;37.544;2022-10-16T10:15:04;55.17;51.05;62.22;;
74504;Laerm;62988;55.776;37.544;2022-10-16T10:17:31;55.79;50.47;64.94;;
74504;Laerm;62988;55.776;37.544;2022-10-16T10:20:18;55.52;50.29;73.66;;
74504;Laerm;62988;55.776;37.544;2022-10-16T10:22:46;56.64;51.22;64.97;;
74504;Laerm;62988;55.776;37.544;2022-10-16T10:31:01;57.20;52.60;64.80;;
74504;Laerm;62988;55.776;37.544;2022-10-16T10:36:38;58.71;51.94;71.26;;
74504;Laerm;62988;55.776;37.544;2022-10-16T10:39:15;57.14;50.82;69.69;;
74504;Laerm;62988;55.776;37.544;2022-10-16T10:58:20;59.33;54.96;74.51;;
74504;Laerm;62988;55.776;37.544;2022-10-16T11:01:10;59.01;51.20;81.77;;
74504;Laerm;62988;55.776;37.544;2022-10-16T11:06:46;57.49;52.58;75.07;;
74504;Laerm;62988;55.776;37.544;2022-10-16T11:09:19;56.88;52.24;68.95;;
74504;Laerm;62988;55.776;37.544;2022-10-16T11:11:54;55.71;50.65;66.84;;
74504;Laerm;62988;55.776;37.544;2022-10-16T11:14:26;55.24;50.43;63.46;;
74504;Laerm;62988;55.776;37.544;2022-10-16T11:16:59;57.03;52.05;70.48;;
74504;Laerm;62988;55.776;37.544;2022-10-16T11:19:43;57.22;52.72;75.69;;
74504;Laerm;62988;55.776;37.544;2022-10-16T11:22:21;56.43;51.61;63.59;;
74504;Laerm;62988;55.776;37.544;2022-10-16T11:24:59;56.42;51.74;65.42;;
74504;Laerm;62988;55.776;37.544;2022-10-16T11:27:36;57.15;52.83;68.20;;
74504;Laerm;62988;55.776;37.544;2022-10-16T11:30:12;54.97;50.99;58.49;;
74504;Laerm;62988;55.776;37.544;2022-10-16T11:38:39;59.77;54.46;75.66;;
74504;Laerm;62988;55.776;37.544;2022-10-16T11:46:34;59.17;55.41;67.17;;
74504;Laerm;62988;55.776;37.544;2022-10-16T11:49:14;56.69;50.56;61.07;;
74504;Laerm;62988;55.776;37.544;2022-10-16T11:51:50;56.96;51.67;64.87;;
74504;Laerm;62988;55.776;37.544;2022-10-16T11:56:54;58.41;51.40;69.83;;
74504;Laerm;62988;55.776;37.544;2022-10-16T11:59:30;57.67;52.39;65.11;;
74504;Laerm;62988;55.776;37.544;2022-10-16T12:04:51;58.27;51.13;77.34;;
74504;Laerm;62988;55.776;37.544;2022-10-16T12:07:29;59.37;53.68;79.43;;
74504;Laerm;62988;55.776;37.544;2022-10-16T12:09:57;57.41;51.18;73.04;;
74504;Laerm;62988;55.776;37.544;2022-10-16T12:15:20;57.01;50.79;80.71;;
74504;Laerm;62988;55.776;37.544;2022-10-16T12:17:46;57.83;52.92;72.15;;
74504;Laerm;62988;55.776;37.544;2022-10-16T12:20:37;57.15;52.79;68.78;;
74504;Laerm;62988;55.776;37.544;2022-10-16T12:23:07;56.77;52.27;69.62;;
74504;Laerm;62988;55.776;37.544;2022-10-16T12:25:54;56.60;50.73;65.50;;
74504;Laerm;62988;55.776;37.544;2022-10-16T12:28:22;56.60;52.03;70.92;;
74504;Laerm;62988;55.776;37.544;2022-10-16T12:30:57;62.12;52.87;81.38;;
74504;Laerm;62988;55.776;37.544;2022-10-16T12:33:29;59.44;51.18;79.34;;
74504;Laerm;62988;55.776;37.544;2022-10-16T12:35:55;58.14;52.39;77.05;;
74504;Laerm;62988;55.776;37.544;2022-10-16T12:41:06;57.09;49.41;74.67;;
74504;Laerm;62988;55.776;37.544;2022-10-16T12:43:40;56.07;50.53;67.20;;
74504;Laerm;62988;55.776;37.544;2022-10-16T12:48:36;58.34;51.64;75.56;;
74504;Laerm;62988;55.776;37.544;2022-10-16T12:54:19;55.24;49.32;68.91;;
74504;Laerm;62988;55.776;37.544;2022-10-16T13:10:32;57.35;53.28;70.92;;
74504;Laerm;62988;55.776;37.544;2022-10-16T13:13:13;56.93;50.72;67.75;;
74504;Laerm;62988;55.776;37.544;2022-10-16T13:18:51;57.07;51.87;67.76;;
74504;Laerm;62988;55.776;37.544;2022-10-16T13:29:06;57.16;51.15;69.72;;
74504;Laerm;62988;55.776;37.544;2022-10-16T13:31:32;56.05;51.37;63.45;;
74504;Laerm;62988;55.776;37.544;2022-10-16T13:33:59;56.63;52.19;62.92;;
74504;Laerm;62988;55.776;37.544;2022-10-16T13:36:28;57.40;53.24;63.17;;
74504;Laerm;62988;55.776;37.544;2022-10-16T13:39:13;56.69;51.58;67.11;;
74504;Laerm;62988;55.776;37.544;2022-10-16T13:41:39;57.05;52.32;70.92;;
74504;Laerm;62988;55.776;37.544;2022-10-16T13:44:13;55.94;51.88;62.10;;
74504;Laerm;62988;55.776;37.544;2022-10-16T13:46:39;59.09;53.15;73.31;;
74504;Laerm;62988;55.776;37.544;2022-10-16T13:49:12;55.67;49.61;71.28;;
74504;Laerm;62988;55.776;37.544;2022-10-16T13:51:38;56.08;51.01;64.29;;
74504;Laerm;62988;55.776;37.544;2022-10-16T13:54:04;55.98;51.01;72.21;;
74504;Laerm;62988;55.776;37.544;2022-10-16T13:56:32;55.97;50.98;60.02;;
74504;Laerm;62988;55.776;37.544;2022-10-16T13:59:03;56.21;52.62;64.78;;
74504;Laerm;62988;55.776;37.544;2022-10-16T14:01:34;57.43;53.15;67.61;;
74504;Laerm;62988;55.776;37.544;2022-10-16T14:04:09;56.55;51.58;61.72;;
74504;Laerm;62988;55.776;37.544;2022-10-16T14:06:40;56.06;51.64;62.17;;
74504;Laerm;62988;55.776;37.544;2022-10-16T14:11:54;56.39;52.50;62.69;;
74504;Laerm;62988;55.776;37.544;2022-10-16T14:14:22;55.79;51.53;65.15;;
74504;Laerm;62988;55.776;37.544;2022-10-16T14:16:48;55.56;50.70;64.63;;
74504;Laerm;62988;55.776;37.544;2022-10-16T14:19:34;55.27;49.51;68.11;;
74504;Laerm;62988;55.776;37.544;2022-10-16T14:22:01;56.23;51.93;61.76;;
74504;Laerm;62988;55.776;37.544;2022-10-16T14:26:57;56.73;51.77;64.24;;
74504;Laerm;62988;55.776;37.544;2022-10-16T14:29:24;56.95;50.86;61.55;;
74504;Laerm;62988;55.776;37.544;2022-10-16T14:32:04;57.11;52.06;64.55;;
74504;Laerm;62988;55.776;37.544;2022-10-16T14:34:32;56.75;51.44;64.05;;
74504;Laerm;62988;55.776;37.544;2022-10-16T14:37:26;56.05;52.09;60.58;;
74504;Laerm;62988;55.776;37.544;2022-10-16T14:39:52;57.06;52.83;65.37;;
74504;Laerm;62988;55.776;37.544;2022-10-16T14:42:21;56.49;52.47;63.10;;
74504;Laerm;62988;55.776;37.544;2022-10-16T14:44:50;57.35;53.41;64.75;;
74504;Laerm;62988;55.776;37.544;2022-10-16T14:47:22;57.69;53.34;62.60;;
74504;Laerm;62988;55.776;37.544;2022-10-16T14:49:50;57.53;53.74;63.08;;
74504;Laerm;62988;55.776;37.544;2022-10-16T14:52:16;58.15;53.59;63.47;;
74504;Laerm;62988;55.776;37.544;2022-10-16T14:54:42;57.99;55.04;63.39;;
74504;Laerm;62988;55.776;37.544;2022-10-16T14:57:19;58.45;53.94;71.55;;
74504;Laerm;62988;55.776;37.544;2022-10-16T14:59:46;57.03;52.45;62.21;;
74504;Laerm;62988;55.776;37.544;2022-10-16T15:02:30;58.62;53.96;67.56;;
74504;Laerm;62988;55.776;37.544;2022-10-16T15:04:57;58.12;54.19;64.26;;
74504;Laerm;62988;55.776;37.544;2022-10-16T15:07:22;58.00;54.15;63.85;;
74504;Laerm;62988;55.776;37.544;2022-10-16T15:09:48;58.82;54.05;63.85;;
74504;Laerm;62988;55.776;37.544;2022-10-16T15:12:14;57.38;52.78;66.19;;
74504;Laerm;62988;55.776;37.544;2022-10-16T15:14:39;56.66;53.14;64.40;;
74504;Laerm;62988;55.776;37.544;2022-10-16T15:17:05;57.02;52.36;65.31;;
74504;Laerm;62988;55.776;37.544;2022-10-16T15:19:31;57.81;53.44;66.62;;
74504;Laerm;62988;55.776;37.544;2022-10-16T15:21:56;57.79;53.68;70.08;;
74504;Laerm;62988;55.776;37.544;2022-10-16T15:24:22;58.03;53.18;71.15;;
74504;Laerm;62988;55.776;37.544;2022-10-16T15:26:47;57.13;53.42;71.24;;
74504;Laerm;62988;55.776;37.544;2022-10-16T15:29:15;57.43;53.33;71.32;;